createdAt,value
2019-06-20T00:01:46.054Z,18.00
2019-06-20T00:04:14.657Z,17.90
2019-06-20T00:06:43.353Z,18.00
2019-06-20T00:09:11.954Z,17.90
2019-06-20T00:11:40.776Z,17.90
2019-06-20T00:14:09.448Z,17.80
2019-06-20T00:16:38.181Z,17.80
2019-06-20T00:19:07.222Z,17.80
2019-06-20T00:21:36.141Z,17.80
2019-06-20T00:24:05.002Z,17.80
2019-06-20T00:26:33.550Z,17.70
2019-06-20T00:29:12.509Z,17.70
2019-06-20T00:31:41.074Z,17.70
2019-06-20T00:34:09.706Z,17.70
2019-06-20T00:36:38.370Z,17.70
2019-06-20T00:39:08.009Z,17.70
2019-06-20T00:41:36.784Z,17.70
2019-06-20T00:44:05.356Z,17.70
2019-06-20T00:46:33.964Z,17.60
2019-06-20T00:49:02.493Z,17.60
2019-06-20T00:51:31.124Z,17.60
2019-06-20T00:53:59.697Z,17.60
2019-06-20T00:56:28.268Z,17.60
2019-06-20T00:58:56.841Z,17.60
2019-06-20T01:01:25.370Z,17.60
2019-06-20T01:03:53.994Z,17.60
2019-06-20T01:06:22.549Z,17.70
2019-06-20T01:08:51.150Z,17.70
2019-06-20T01:11:19.720Z,17.60
2019-06-20T01:13:48.352Z,17.50
2019-06-20T01:16:16.960Z,17.40
2019-06-20T01:18:45.450Z,17.40
2019-06-20T01:21:13.954Z,17.40
2019-06-20T01:23:42.569Z,17.40
2019-06-20T01:26:11.378Z,17.40
2019-06-20T01:28:39.953Z,17.40
2019-06-20T01:31:08.558Z,17.40
2019-06-20T01:33:37.145Z,17.40
2019-06-20T01:36:05.757Z,17.40
2019-06-20T01:38:34.480Z,17.40
2019-06-20T01:41:05.959Z,17.40
2019-06-20T01:43:49.118Z,17.40
2019-06-20T01:46:03.660Z,17.40
2019-06-20T01:48:32.229Z,17.40
2019-06-20T01:51:00.798Z,17.40
2019-06-20T01:53:29.414Z,17.40
2019-06-20T01:55:57.997Z,17.40
2019-06-20T01:58:26.494Z,17.40
2019-06-20T02:00:55.137Z,17.40
2019-06-20T02:03:23.735Z,17.40
2019-06-20T02:05:52.454Z,17.40
2019-06-20T02:08:21.035Z,17.30
2019-06-20T02:10:49.700Z,17.30
2019-06-20T02:13:18.204Z,17.30
2019-06-20T02:15:46.767Z,17.20
2019-06-20T02:18:15.429Z,17.20
2019-06-20T02:20:52.368Z,17.10
2019-06-20T02:23:21.880Z,17.10
2019-06-20T02:25:50.507Z,17.00
2019-06-20T02:28:19.218Z,17.00
2019-06-20T02:30:47.793Z,17.00
2019-06-20T02:33:16.312Z,17.00
2019-06-20T02:35:44.939Z,17.00
2019-06-20T02:38:13.543Z,17.00
2019-06-20T02:40:42.127Z,17.10
2019-06-20T02:43:10.640Z,17.10
2019-06-20T02:45:39.135Z,17.10
2019-06-20T02:48:07.731Z,17.10
2019-06-20T02:50:36.598Z,17.00
2019-06-20T02:53:05.443Z,17.00
2019-06-20T02:55:34.017Z,17.00
2019-06-20T02:58:02.609Z,17.00
2019-06-20T03:00:40.132Z,17.00
2019-06-20T03:03:08.748Z,17.00
2019-06-20T03:05:37.310Z,17.10
2019-06-20T03:08:05.847Z,17.10
2019-06-20T03:10:34.425Z,17.10
2019-06-20T03:13:02.987Z,17.20
2019-06-20T03:15:31.528Z,17.20
2019-06-20T03:18:00.030Z,17.20
2019-06-20T03:20:28.590Z,17.20
2019-06-20T03:22:57.131Z,17.20
2019-06-20T03:25:25.700Z,17.30
2019-06-20T03:27:54.203Z,17.30
2019-06-20T03:30:22.811Z,17.30
2019-06-20T03:32:51.439Z,17.30
2019-06-20T03:35:20.017Z,17.30
2019-06-20T03:37:50.287Z,17.30
2019-06-20T03:40:18.983Z,17.30
2019-06-20T03:42:47.546Z,17.30
2019-06-20T03:45:16.141Z,17.30
2019-06-20T03:47:44.660Z,17.30
2019-06-20T03:50:13.200Z,17.40
2019-06-20T03:52:41.737Z,17.40
2019-06-20T03:55:10.963Z,17.40
2019-06-20T03:57:39.526Z,17.40
2019-06-20T04:00:10.861Z,17.30
2019-06-20T04:02:39.433Z,17.40
2019-06-20T04:05:07.991Z,17.40
2019-06-20T04:07:36.514Z,17.40
2019-06-20T04:10:06.040Z,17.40
2019-06-20T04:12:34.555Z,17.40
2019-06-20T04:15:17.982Z,17.40
2019-06-20T04:17:33.535Z,17.50
2019-06-20T04:20:02.119Z,17.60
2019-06-20T04:22:30.619Z,17.60
2019-06-20T04:24:59.110Z,17.60
2019-06-20T04:27:27.716Z,17.60
2019-06-20T04:29:56.318Z,17.60
2019-06-20T04:32:24.827Z,17.60
2019-06-20T04:34:53.323Z,17.60
2019-06-20T04:37:21.917Z,17.70
2019-06-20T04:39:50.521Z,17.70
2019-06-20T04:42:19.092Z,17.70
2019-06-20T04:44:47.608Z,17.70
2019-06-20T05:10:14.430Z,17.70
2019-06-20T05:12:43.100Z,17.70
2019-06-20T05:15:15.090Z,17.80
2019-06-20T05:18:12.876Z,17.80
2019-06-20T05:20:43.689Z,17.80
2019-06-20T05:23:32.236Z,17.70
2019-06-20T05:26:01.389Z,17.70
2019-06-20T05:28:49.436Z,17.80
2019-06-20T05:31:18.063Z,17.90
2019-06-20T05:33:46.766Z,18.00
2019-06-20T05:36:17.331Z,18.00
2019-06-20T05:38:45.974Z,18.00
2019-06-20T05:41:15.007Z,18.00
2019-06-20T05:43:43.642Z,18.00
2019-06-20T05:46:12.848Z,17.90
2019-06-20T05:48:41.938Z,18.00
2019-06-20T05:51:10.547Z,18.10
2019-06-20T05:54:01.390Z,18.10
2019-06-20T05:56:32.220Z,18.10
2019-06-20T05:59:03.659Z,18.20
2019-06-20T06:01:32.643Z,18.40
2019-06-20T06:04:01.521Z,18.50
2019-06-20T06:09:07.607Z,18.80
2019-06-20T06:23:07.517Z,19.00
2019-06-20T06:25:36.156Z,19.00
2019-06-20T06:28:05.003Z,19.00
2019-06-20T06:35:59.200Z,19.20
2019-06-20T06:38:28.105Z,19.30
2019-06-20T06:41:01.313Z,19.30
2019-06-20T06:43:41.563Z,19.20
2019-06-20T06:46:08.905Z,19.10
2019-06-20T06:48:40.133Z,19.10
2019-06-20T06:51:28.633Z,19.10
2019-06-20T06:53:57.794Z,19.10
2019-06-20T06:56:26.814Z,19.10
2019-06-20T06:58:58.875Z,19.10
2019-06-20T07:01:27.941Z,18.90
2019-06-20T07:04:04.654Z,18.90
2019-06-20T07:06:55.311Z,18.80
2019-06-20T07:21:10.195Z,18.50
2019-06-20T07:23:39.096Z,18.50
2019-06-20T07:49:31.368Z,19.10
2019-06-20T07:52:03.145Z,19.20
2019-06-20T07:57:03.710Z,19.10
2019-06-20T08:02:23.267Z,19.10
2019-06-20T08:04:52.246Z,19.20
2019-06-20T08:09:50.044Z,19.40
2019-06-20T08:14:49.440Z,19.60
2019-06-20T08:17:35.899Z,19.60
2019-06-20T08:20:06.746Z,19.60
2019-06-20T08:22:35.483Z,19.80
2019-06-20T08:41:11.348Z,20.20
2019-06-20T08:51:57.343Z,20.50
2019-06-20T08:54:26.402Z,20.60
2019-06-20T08:56:57.061Z,21.00
2019-06-20T08:59:25.756Z,21.30
2019-06-20T09:01:56.608Z,21.40
2019-06-20T09:04:24.648Z,21.30
2019-06-20T09:06:55.251Z,21.20
2019-06-20T09:09:25.577Z,21.10
2019-06-20T09:11:55.479Z,21.20
2019-06-20T09:14:25.054Z,21.20
2019-06-20T09:16:54.894Z,21.10
2019-06-20T09:19:23.583Z,21.10
2019-06-20T09:38:27.263Z,20.60
2019-06-20T09:40:56.909Z,20.40
2019-06-20T09:43:27.833Z,20.40
2019-06-20T09:48:46.964Z,20.20
2019-06-20T09:51:15.662Z,20.20
2019-06-20T09:53:44.418Z,20.00
2019-06-20T09:56:13.316Z,19.90
2019-06-20T09:58:58.134Z,19.90
2019-06-20T10:01:27.075Z,20.10
2019-06-20T10:03:56.782Z,20.30
2019-06-20T10:06:25.815Z,20.40
2019-06-20T10:08:56.457Z,20.70
2019-06-20T10:11:45.336Z,20.90
2019-06-20T10:17:45.746Z,21.40
2019-06-20T10:20:16.286Z,21.40
2019-06-20T11:03:04.358Z,22.50
2019-06-20T11:05:54.281Z,22.30
2019-06-20T11:08:32.647Z,22.30
2019-06-20T11:11:01.430Z,22.30
2019-06-20T11:13:39.510Z,22.30
2019-06-20T11:16:08.220Z,22.40
2019-06-20T11:18:46.784Z,22.40
2019-06-20T11:21:22.556Z,22.50
2019-06-20T11:32:19.049Z,22.50
2019-06-20T11:34:47.748Z,22.50
2019-06-20T11:37:22.785Z,22.40
2019-06-20T11:45:06.793Z,22.60
2019-06-20T11:47:36.551Z,23.00
2019-06-20T11:50:06.396Z,23.40
2019-06-20T11:52:40.444Z,23.80
2019-06-20T12:00:38.438Z,23.50
2019-06-20T12:03:07.228Z,23.10
2019-06-20T12:08:18.440Z,22.70
2019-06-20T12:10:49.385Z,22.60
2019-06-20T12:22:18.341Z,22.00
2019-06-20T12:30:48.345Z,21.60
2019-06-20T12:33:21.301Z,21.50
2019-06-20T12:35:50.251Z,21.40
2019-06-20T12:41:10.585Z,21.80
2019-06-20T12:48:57.341Z,23.70
2019-06-20T12:51:45.357Z,24.10
2019-06-20T12:54:19.773Z,24.50
2019-06-20T12:56:48.483Z,24.60
2019-06-20T13:02:55.527Z,24.20
2019-06-20T13:05:54.288Z,24.10
2019-06-20T13:24:42.763Z,26.00
2019-06-20T13:27:27.323Z,25.80
2019-06-20T13:33:03.401Z,25.60
2019-06-20T13:38:52.792Z,26.00
2019-06-20T13:44:27.007Z,26.40
2019-06-20T13:47:15.077Z,26.80
2019-06-20T13:49:50.109Z,27.30
2019-06-20T13:53:05.882Z,27.70
2019-06-20T14:01:06.844Z,26.40
2019-06-20T14:07:11.836Z,26.50
2019-06-20T14:12:33.487Z,27.10
2019-06-20T14:17:33.692Z,27.30
2019-06-20T14:20:08.222Z,27.10
2019-06-20T14:22:35.121Z,27.30
2019-06-20T14:25:07.163Z,27.50
2019-06-20T14:27:35.978Z,27.20
2019-06-20T14:30:08.787Z,27.10
2019-06-20T14:32:37.309Z,26.80
2019-06-20T14:35:05.991Z,27.00
2019-06-20T14:37:34.533Z,27.60
2019-06-20T14:40:12.049Z,28.20
2019-06-20T14:42:40.750Z,28.60
2019-06-20T14:45:15.310Z,28.30
2019-06-20T14:47:44.018Z,27.80
2019-06-20T14:50:12.686Z,27.90
2019-06-20T14:52:42.696Z,28.40
2019-06-20T14:55:12.191Z,28.80
2019-06-20T14:57:44.606Z,29.30
2019-06-20T15:00:21.792Z,29.30
2019-06-20T15:02:54.449Z,29.20
2019-06-20T15:05:20.799Z,29.70
2019-06-20T15:07:51.499Z,29.60
2019-06-20T15:10:19.736Z,29.90
2019-06-20T15:12:50.257Z,29.70
2019-06-20T15:15:18.816Z,29.70
2019-06-20T15:17:49.885Z,29.60
2019-06-20T15:20:17.679Z,30.10
2019-06-20T15:22:47.375Z,30.70
2019-06-20T15:25:16.714Z,31.40
2019-06-20T15:27:47.245Z,31.80
2019-06-20T15:30:16.823Z,32.10
2019-06-20T15:33:01.136Z,32.10
2019-06-20T15:35:15.896Z,32.00
2019-06-20T15:37:44.603Z,31.00
2019-06-20T15:40:13.347Z,29.80
2019-06-20T15:42:42.093Z,29.00
2019-06-20T15:45:10.614Z,28.60
2019-06-20T15:47:41.727Z,28.30
2019-06-20T15:50:10.361Z,28.30
2019-06-20T15:52:41.751Z,28.80
2019-06-20T15:55:11.616Z,29.60
2019-06-20T15:57:40.381Z,29.80
2019-06-20T16:00:10.183Z,29.60
2019-06-20T16:02:38.682Z,30.00
2019-06-20T16:05:07.502Z,30.20
2019-06-20T16:07:36.116Z,30.60
2019-06-20T16:10:07.908Z,31.10
2019-06-20T16:12:36.500Z,31.30
2019-06-20T16:15:07.083Z,31.30
2019-06-20T16:17:35.832Z,31.60
2019-06-20T16:20:06.782Z,31.70
2019-06-20T16:22:35.511Z,30.30
2019-06-20T16:25:05.183Z,30.20
2019-06-20T16:27:33.839Z,30.50
2019-06-20T16:30:02.492Z,31.10
2019-06-20T16:32:31.162Z,31.50
2019-06-20T16:34:59.974Z,31.40
2019-06-20T16:37:28.635Z,30.50
2019-06-20T16:39:59.971Z,29.90
2019-06-20T16:42:28.578Z,29.10
2019-06-20T16:44:57.152Z,28.20
2019-06-20T16:47:25.880Z,27.40
2019-06-20T16:49:54.537Z,26.60
2019-06-20T16:52:23.233Z,25.80
2019-06-20T16:54:51.937Z,25.20
2019-06-20T16:57:20.465Z,24.90
2019-06-20T16:59:49.321Z,25.50
2019-06-20T17:02:17.913Z,26.80
2019-06-20T17:04:46.613Z,27.50
2019-06-20T17:07:15.166Z,27.20
2019-06-20T17:09:43.878Z,26.20
2019-06-20T17:12:12.546Z,25.40
2019-06-20T17:14:41.122Z,24.90
2019-06-20T17:17:09.716Z,24.60
2019-06-20T17:19:41.981Z,24.50
2019-06-20T17:22:08.637Z,24.30
2019-06-20T17:24:37.301Z,24.10
2019-06-20T17:27:05.887Z,24.00
2019-06-20T17:29:34.491Z,23.80
2019-06-20T17:32:03.110Z,23.60
2019-06-20T17:34:32.051Z,23.50
2019-06-20T17:37:00.710Z,23.30
2019-06-20T17:39:29.316Z,23.00
2019-06-20T17:41:57.915Z,22.80
2019-06-20T17:44:27.555Z,22.50
2019-06-20T17:46:56.225Z,22.30
2019-06-20T17:49:24.746Z,22.20
2019-06-20T17:51:53.428Z,21.90
2019-06-20T17:54:21.934Z,21.80
2019-06-20T17:56:50.518Z,21.70
2019-06-20T17:59:22.791Z,21.70
2019-06-20T18:01:50.924Z,21.80
2019-06-20T18:04:19.792Z,21.70
2019-06-20T18:06:48.522Z,21.60
2019-06-20T18:09:17.349Z,21.50
2019-06-20T18:11:45.951Z,21.40
2019-06-20T18:14:14.477Z,21.30
2019-06-20T18:16:42.974Z,21.30
2019-06-20T18:19:11.698Z,21.20
2019-06-20T18:21:40.392Z,21.10
2019-06-20T18:24:08.921Z,21.00
2019-06-20T18:26:37.547Z,20.90
2019-06-20T18:29:06.136Z,20.80
2019-06-20T18:31:34.745Z,20.70
2019-06-20T18:34:03.560Z,20.60
2019-06-20T18:36:32.096Z,20.40
2019-06-20T18:39:00.666Z,20.30
2019-06-20T18:41:29.342Z,20.20
2019-06-20T18:43:58.006Z,20.10
2019-06-20T18:46:26.583Z,20.00
2019-06-20T18:48:55.077Z,20.00
2019-06-20T18:51:24.541Z,20.00
2019-06-20T18:53:53.335Z,20.00
2019-06-20T18:56:21.917Z,19.90
2019-06-20T18:58:50.626Z,19.80
2019-06-20T19:01:19.350Z,19.80
2019-06-20T19:03:48.070Z,19.80
2019-06-20T19:06:16.720Z,19.80
2019-06-20T19:08:45.548Z,19.70
2019-06-20T19:11:14.393Z,19.70
2019-06-20T19:13:43.091Z,19.70
2019-06-20T19:16:11.664Z,19.70
2019-06-20T19:18:40.449Z,19.60
2019-06-20T19:21:09.197Z,19.50
2019-06-20T19:23:37.878Z,19.50
2019-06-20T19:26:06.650Z,19.40
2019-06-20T19:28:35.438Z,19.40
2019-06-20T19:31:04.034Z,19.30
2019-06-20T19:33:32.677Z,19.30
2019-06-20T19:36:01.191Z,19.30
2019-06-20T19:38:29.786Z,19.20
2019-06-20T19:40:58.374Z,19.20
2019-06-20T19:43:28.648Z,19.20
2019-06-20T19:45:57.325Z,19.10
2019-06-20T19:48:25.900Z,19.00
2019-06-20T19:50:54.503Z,18.90
2019-06-20T19:53:23.201Z,18.80
2019-06-20T19:55:51.820Z,18.70
2019-06-20T19:58:20.409Z,18.60
2019-06-20T20:00:49.204Z,18.50
2019-06-20T20:03:17.771Z,18.40
2019-06-20T20:05:46.413Z,18.30
2019-06-20T20:08:15.076Z,18.20
2019-06-20T20:10:51.731Z,18.20
2019-06-20T20:13:20.302Z,18.10
2019-06-20T20:15:48.885Z,18.00
2019-06-20T20:18:17.635Z,18.00
2019-06-20T20:20:47.654Z,17.90
2019-06-20T20:23:16.364Z,17.90
2019-06-20T20:25:44.977Z,17.90
2019-06-20T20:28:13.516Z,17.80
2019-06-20T20:30:42.173Z,17.80
2019-06-20T20:33:10.743Z,17.70
2019-06-20T20:35:39.334Z,17.60
2019-06-20T20:38:07.896Z,17.60
2019-06-20T20:40:36.500Z,17.50
2019-06-20T20:43:05.123Z,17.50
2019-06-20T20:45:33.790Z,17.40
2019-06-20T20:48:02.420Z,17.40
2019-06-20T20:50:31.035Z,17.40
2019-06-20T20:52:59.526Z,17.30
2019-06-20T20:55:28.013Z,17.20
2019-06-20T20:57:56.641Z,17.10
2019-06-20T21:00:43.434Z,17.00
2019-06-20T21:03:12.029Z,17.00
2019-06-20T21:05:50.940Z,16.90
2019-06-20T21:08:10.736Z,16.90
2019-06-20T21:10:39.343Z,16.80
2019-06-20T21:13:07.842Z,16.80
2019-06-20T21:15:36.362Z,16.70
2019-06-20T21:18:05.115Z,16.70
2019-06-20T21:20:34.008Z,16.60
2019-06-20T21:23:03.004Z,16.50
2019-06-20T21:25:32.427Z,16.50
2019-06-20T21:28:01.143Z,16.50
2019-06-20T21:30:29.932Z,16.50
2019-06-20T21:32:58.734Z,16.40
2019-06-20T21:35:27.309Z,16.40
2019-06-20T21:37:56.013Z,16.30
2019-06-20T21:40:31.652Z,16.20
2019-06-20T21:43:00.322Z,16.20
2019-06-20T21:45:28.898Z,16.20
2019-06-20T21:47:57.959Z,16.10
2019-06-20T21:50:26.627Z,16.10
2019-06-20T21:52:55.215Z,16.00
2019-06-20T21:55:24.160Z,16.00
2019-06-20T21:57:52.967Z,16.00
2019-06-20T22:00:32.598Z,16.00
2019-06-20T22:03:01.191Z,15.90
2019-06-20T22:05:29.833Z,15.90
2019-06-20T22:07:58.631Z,15.90
2019-06-20T22:10:27.844Z,15.90
2019-06-20T22:12:56.531Z,15.90
2019-06-20T22:15:25.051Z,15.80
2019-06-20T22:17:53.702Z,15.80
2019-06-20T22:20:22.648Z,15.80
2019-06-20T22:22:51.371Z,15.80
2019-06-20T22:25:19.972Z,15.80
2019-06-20T22:27:48.545Z,15.80
2019-06-20T22:30:18.710Z,15.80
2019-06-20T22:32:47.357Z,15.80
2019-06-20T22:35:16.098Z,15.80
2019-06-20T22:37:44.701Z,15.80
2019-06-20T22:40:13.326Z,15.80
2019-06-20T22:42:41.984Z,15.70
2019-06-20T22:45:10.653Z,15.70
2019-06-20T22:47:39.262Z,15.70
2019-06-20T22:50:07.912Z,15.70
2019-06-20T22:52:36.505Z,15.60
2019-06-20T22:55:08.758Z,15.60
2019-06-20T22:57:37.281Z,15.60
2019-06-20T23:00:08.834Z,15.60
2019-06-20T23:02:37.384Z,15.50
2019-06-20T23:05:06.155Z,15.40
2019-06-20T23:07:34.716Z,15.40
2019-06-20T23:10:10.564Z,15.30
2019-06-20T23:12:35.410Z,15.30
2019-06-20T23:15:05.364Z,15.20
2019-06-20T23:17:33.914Z,15.20
2019-06-20T23:20:02.566Z,15.20
2019-06-20T23:22:31.197Z,15.10
2019-06-20T23:24:59.858Z,15.10
2019-06-20T23:27:28.516Z,15.10
2019-06-20T23:29:57.071Z,15.10
2019-06-20T23:32:25.647Z,15.00
2019-06-20T23:34:54.189Z,15.00
2019-06-20T23:37:22.783Z,15.00
2019-06-20T23:39:51.366Z,15.00
2019-06-20T23:42:19.972Z,14.90
2019-06-20T23:44:48.543Z,14.90
2019-06-20T23:47:17.119Z,14.90
2019-06-20T23:49:45.734Z,14.90
2019-06-20T23:52:15.868Z,14.80
2019-06-20T23:54:44.617Z,14.80
2019-06-20T23:57:13.455Z,14.80
2019-06-20T23:59:42.015Z,14.70
